createdAt,value
2017-01-05T00:00:07.340Z,1002.15
2017-01-05T00:01:07.349Z,1002.21
2017-01-05T00:02:07.362Z,1002.18
2017-01-05T00:03:07.372Z,1002.24
2017-01-05T00:04:07.385Z,1002.23
2017-01-05T00:05:07.396Z,1002.25
2017-01-05T00:06:07.407Z,1002.28
2017-01-05T00:07:07.422Z,1002.3
2017-01-05T00:08:07.433Z,1002.33
2017-01-05T00:09:07.444Z,1002.35
2017-01-05T00:10:07.458Z,1002.36
2017-01-05T00:11:07.471Z,1002.4
2017-01-05T00:12:07.485Z,1002.39
2017-01-05T00:13:07.497Z,1002.38
2017-01-05T00:14:07.507Z,1002.43
2017-01-05T00:15:07.516Z,1002.48
2017-01-05T00:16:07.532Z,1002.44
2017-01-05T00:17:07.542Z,1002.47
2017-01-05T00:18:07.555Z,1002.53
2017-01-05T00:19:07.564Z,1002.54
2017-01-05T00:20:07.580Z,1002.5
2017-01-05T00:21:07.590Z,1002.56
2017-01-05T00:22:07.599Z,1002.52
2017-01-05T00:23:07.616Z,1002.5
2017-01-05T00:24:07.627Z,1002.5
2017-01-05T00:25:07.638Z,1002.53
2017-01-05T00:26:07.647Z,1002.57
2017-01-05T00:27:07.661Z,1002.53
2017-01-05T00:28:07.674Z,1002.51
2017-01-05T00:29:07.681Z,1002.48
2017-01-05T00:30:07.699Z,1002.49
2017-01-05T00:31:07.708Z,1002.46
2017-01-05T00:32:07.721Z,1002.53
2017-01-05T00:33:07.733Z,1002.64
2017-01-05T00:34:07.743Z,1002.64
2017-01-05T00:35:07.756Z,1002.6
2017-01-05T00:36:07.768Z,1002.58
2017-01-05T00:37:07.781Z,1002.55
2017-01-05T00:38:07.793Z,1002.56
2017-01-05T00:39:07.806Z,1002.63
2017-01-05T00:40:07.816Z,1002.62
2017-01-05T00:41:07.827Z,1002.63
2017-01-05T00:42:07.842Z,1002.65
2017-01-05T00:43:07.851Z,1002.6
2017-01-05T00:44:07.868Z,1002.64
2017-01-05T00:45:07.873Z,1002.65
2017-01-05T00:46:07.889Z,1002.66
2017-01-05T00:47:07.902Z,1002.69
2017-01-05T00:48:07.916Z,1002.77
2017-01-05T00:49:07.924Z,1002.76
2017-01-05T00:50:07.938Z,1002.81
2017-01-05T00:51:07.947Z,1002.74
2017-01-05T00:52:07.956Z,1002.78
2017-01-05T00:53:07.974Z,1002.82
2017-01-05T00:54:07.985Z,1002.83
2017-01-05T00:55:07.995Z,1002.81
2017-01-05T00:56:08.005Z,1002.82
2017-01-05T00:57:08.021Z,1002.79
2017-01-05T00:58:08.033Z,1002.85
2017-01-05T00:59:08.042Z,1002.85
2017-01-05T01:00:08.054Z,1002.83
2017-01-05T01:01:08.068Z,1002.89
2017-01-05T01:02:08.080Z,1002.85
2017-01-05T01:03:08.091Z,1002.87
2017-01-05T01:04:08.103Z,1002.89
2017-01-05T01:05:08.114Z,1002.88
2017-01-05T01:06:08.128Z,1002.88
2017-01-05T01:07:08.136Z,1002.81
2017-01-05T01:08:08.147Z,1002.85
2017-01-05T01:09:08.161Z,1002.9
2017-01-05T01:10:08.173Z,1002.95
2017-01-05T01:11:08.185Z,1002.96
2017-01-05T01:12:08.198Z,1002.98
2017-01-05T01:13:08.208Z,1003.06
2017-01-05T01:14:08.221Z,1003
2017-01-05T01:15:08.233Z,1003.01
2017-01-05T01:16:08.244Z,1003.04
2017-01-05T01:17:08.257Z,1003.02
2017-01-05T01:18:08.268Z,1002.97
2017-01-05T01:19:08.278Z,1003.01
2017-01-05T01:20:08.290Z,1002.99
2017-01-05T01:21:08.299Z,1003.03
2017-01-05T01:22:08.313Z,1003.09
2017-01-05T01:23:08.325Z,1003.09
2017-01-05T01:24:08.334Z,1003.08
2017-01-05T01:25:08.353Z,1003.1
2017-01-05T01:26:08.362Z,1003.07
2017-01-05T01:27:08.373Z,1003.14
2017-01-05T01:28:08.383Z,1003.21
2017-01-05T01:29:08.398Z,1003.19
2017-01-05T01:30:08.407Z,1003.13
2017-01-05T01:31:08.420Z,1003.21
2017-01-05T01:32:08.433Z,1003.14
2017-01-05T01:33:08.442Z,1003.16
2017-01-05T01:34:08.455Z,1003.17
2017-01-05T01:35:08.465Z,1003.13
2017-01-05T01:36:08.476Z,1003.18
2017-01-05T01:37:08.488Z,1003.23
2017-01-05T01:38:08.500Z,1003.26
2017-01-05T01:39:08.511Z,1003.22
2017-01-05T01:40:08.524Z,1003.28
2017-01-05T01:41:08.534Z,1003.29
2017-01-05T01:42:08.544Z,1003.3
2017-01-05T01:43:08.559Z,1003.27
2017-01-05T01:44:08.571Z,1003.27
2017-01-05T01:45:08.581Z,1003.34
2017-01-05T01:46:08.594Z,1003.28
2017-01-05T01:47:08.601Z,1003.26
2017-01-05T01:48:08.614Z,1003.3
2017-01-05T01:49:08.626Z,1003.36
2017-01-05T01:50:08.637Z,1003.36
2017-01-05T01:51:08.650Z,1003.39
2017-01-05T01:52:08.658Z,1003.39
2017-01-05T01:53:08.674Z,1003.39
2017-01-05T01:54:08.683Z,1003.44
2017-01-05T01:55:08.693Z,1003.44
2017-01-05T01:56:08.705Z,1003.46
2017-01-05T01:57:08.715Z,1003.45
2017-01-05T01:58:08.727Z,1003.47
2017-01-05T01:59:08.741Z,1003.42
2017-01-05T02:00:08.749Z,1003.44
2017-01-05T02:01:08.766Z,1003.56
2017-01-05T02:02:08.775Z,1003.49
2017-01-05T02:03:08.788Z,1003.5
2017-01-05T02:04:08.799Z,1003.5
2017-01-05T02:05:08.809Z,1003.5
2017-01-05T02:06:08.826Z,1003.53
2017-01-05T02:07:08.835Z,1003.47
2017-01-05T02:08:08.844Z,1003.51
2017-01-05T02:09:08.857Z,1003.53
2017-01-05T02:10:08.870Z,1003.54
2017-01-05T02:11:08.878Z,1003.54
2017-01-05T02:12:08.889Z,1003.49
2017-01-05T02:13:08.901Z,1003.45
2017-01-05T02:14:08.913Z,1003.51
2017-01-05T02:15:08.921Z,1003.52
2017-01-05T02:16:08.936Z,1003.52
2017-01-05T02:17:08.945Z,1003.51
2017-01-05T02:18:08.956Z,1003.55
2017-01-05T02:19:08.970Z,1003.55
2017-01-05T02:20:08.980Z,1003.59
2017-01-05T02:21:08.991Z,1003.59
2017-01-05T02:22:09.000Z,1003.59
2017-01-05T02:23:09.016Z,1003.65
2017-01-05T02:24:09.021Z,1003.67
2017-01-05T02:25:09.035Z,1003.72
2017-01-05T02:26:09.043Z,1003.71
2017-01-05T02:27:09.057Z,1003.75
2017-01-05T02:28:09.069Z,1003.74
2017-01-05T02:29:09.079Z,1003.79
2017-01-05T02:30:09.092Z,1003.83
2017-01-05T02:31:09.104Z,1003.86
2017-01-05T02:32:09.114Z,1003.85
2017-01-05T02:33:09.129Z,1003.82
2017-01-05T02:34:09.135Z,1003.93
2017-01-05T02:35:09.147Z,1003.95
2017-01-05T02:36:09.158Z,1003.92
2017-01-05T02:37:09.169Z,1003.93
2017-01-05T02:38:09.180Z,1003.99
2017-01-05T02:39:09.192Z,1003.94
2017-01-05T02:40:09.203Z,1003.91
2017-01-05T02:41:09.214Z,1003.96
2017-01-05T02:42:09.225Z,1003.97
2017-01-05T02:43:09.241Z,1003.97
2017-01-05T02:44:09.250Z,1003.96
2017-01-05T02:45:09.258Z,1004.03
2017-01-05T02:46:09.268Z,1004.07
2017-01-05T02:47:09.277Z,1004.04
2017-01-05T02:48:09.293Z,1004.09
2017-01-05T02:49:09.303Z,1004.1
2017-01-05T02:50:09.315Z,1004.14
2017-01-05T02:51:09.323Z,1004.22
2017-01-05T02:52:09.333Z,1004.16
2017-01-05T02:53:09.345Z,1004.3
2017-01-05T02:54:09.359Z,1004.23
2017-01-05T02:55:09.367Z,1004.21
2017-01-05T02:56:09.375Z,1004.35
2017-01-05T02:57:09.390Z,1004.25
2017-01-05T02:58:09.400Z,1004.31
2017-01-05T02:59:09.406Z,1004.36
2017-01-05T03:00:09.418Z,1004.3
2017-01-05T03:01:09.430Z,1004.3
2017-01-05T03:02:09.440Z,1004.31
2017-01-05T03:03:09.454Z,1004.35
2017-01-05T03:04:09.458Z,1004.47
2017-01-05T03:05:09.475Z,1004.42
2017-01-05T03:06:09.481Z,1004.43
2017-01-05T03:07:09.497Z,1004.46
2017-01-05T03:08:09.506Z,1004.44
2017-01-05T03:09:09.516Z,1004.43
2017-01-05T03:10:09.525Z,1004.49
2017-01-05T03:11:09.535Z,1004.48
2017-01-05T03:12:09.548Z,1004.52
2017-01-05T03:13:09.558Z,1004.51
2017-01-05T03:14:09.568Z,1004.55
2017-01-05T03:15:09.579Z,1004.59
2017-01-05T03:16:09.588Z,1004.59
2017-01-05T03:17:09.600Z,1004.61
2017-01-05T03:18:09.613Z,1004.67
2017-01-05T03:19:09.622Z,1004.75
2017-01-05T03:20:09.637Z,1004.72
2017-01-05T03:21:09.647Z,1004.71
2017-01-05T03:22:09.653Z,1004.78
2017-01-05T03:23:09.666Z,1004.76
2017-01-05T03:24:09.674Z,1004.84
2017-01-05T03:25:09.686Z,1004.87
2017-01-05T03:26:09.695Z,1004.88
2017-01-05T03:27:09.710Z,1004.81
2017-01-05T03:28:09.715Z,1004.82
2017-01-05T03:29:09.726Z,1004.86
2017-01-05T03:30:09.738Z,1004.88
2017-01-05T03:31:09.751Z,1004.87
2017-01-05T03:32:09.759Z,1004.89
2017-01-05T03:33:09.770Z,1004.92
2017-01-05T03:34:09.779Z,1004.97
2017-01-05T03:35:09.794Z,1005.03
2017-01-05T03:36:09.801Z,1005.07
2017-01-05T03:37:09.816Z,1005.11
2017-01-05T03:38:09.818Z,1005.14
2017-01-05T03:39:09.835Z,1005.19
2017-01-05T03:40:09.845Z,1005.2
2017-01-05T03:41:09.850Z,1005.23
2017-01-05T03:42:09.866Z,1005.24
2017-01-05T03:43:09.875Z,1005.25
2017-01-05T03:44:09.881Z,1005.21
2017-01-05T03:45:09.893Z,1005.25
2017-01-05T03:46:09.906Z,1005.3
2017-01-05T03:47:09.915Z,1005.35
2017-01-05T03:48:09.928Z,1005.31
2017-01-05T03:49:09.933Z,1005.38
2017-01-05T03:50:09.944Z,1005.37
2017-01-05T03:51:09.957Z,1005.37
2017-01-05T03:52:09.969Z,1005.4
2017-01-05T03:53:09.978Z,1005.43
2017-01-05T03:54:09.984Z,1005.45
2017-01-05T03:55:09.997Z,1005.5
2017-01-05T03:56:10.006Z,1005.47
2017-01-05T03:57:10.015Z,1005.5
2017-01-05T03:58:10.029Z,1005.49
2017-01-05T03:59:10.037Z,1005.51
2017-01-05T04:02:10.071Z,1005.57
2017-01-05T04:03:10.080Z,1005.59
2017-01-05T04:04:10.092Z,1005.62
2017-01-05T04:05:10.098Z,1005.62
2017-01-05T04:06:10.112Z,1005.62
2017-01-05T04:07:10.117Z,1005.64
2017-01-05T04:08:10.130Z,1005.66
2017-01-05T04:09:10.140Z,1005.7
2017-01-05T04:10:10.152Z,1005.68
2017-01-05T04:11:10.160Z,1005.73
2017-01-05T04:12:10.173Z,1005.75
2017-01-05T04:13:10.182Z,1005.81
2017-01-05T04:14:10.196Z,1005.85
2017-01-05T04:15:10.206Z,1005.81
2017-01-05T04:16:10.217Z,1005.82
2017-01-05T04:17:10.224Z,1005.87
2017-01-05T04:18:10.240Z,1005.87
2017-01-05T04:19:10.248Z,1005.85
2017-01-05T04:20:10.254Z,1005.86
2017-01-05T04:21:10.267Z,1005.83
2017-01-05T04:22:10.280Z,1005.91
2017-01-05T04:23:10.289Z,1005.87
2017-01-05T04:24:10.299Z,1005.91
2017-01-05T04:25:10.307Z,1005.91
2017-01-05T04:26:10.320Z,1005.9
2017-01-05T04:27:10.329Z,1005.92
2017-01-05T04:28:10.342Z,1005.91
2017-01-05T04:29:10.348Z,1005.98
2017-01-05T04:30:10.362Z,1005.97
2017-01-05T04:31:10.371Z,1005.99
2017-01-05T04:32:10.379Z,1006.03
2017-01-05T04:33:10.394Z,1006.05
2017-01-05T04:34:10.400Z,1006.06
2017-01-05T04:35:10.413Z,1006.14
2017-01-05T04:36:10.425Z,1006.07
2017-01-05T04:37:10.435Z,1006.16
2017-01-05T04:38:10.444Z,1006.18
2017-01-05T04:39:10.454Z,1006.24
2017-01-05T04:40:10.466Z,1006.2
2017-01-05T04:41:10.473Z,1006.21
2017-01-05T04:42:10.487Z,1006.17
2017-01-05T04:43:10.497Z,1006.24
2017-01-05T04:44:10.510Z,1006.27
2017-01-05T04:45:10.516Z,1006.22
2017-01-05T04:46:10.537Z,1006.29
2017-01-05T04:47:10.541Z,1006.33
2017-01-05T04:48:10.550Z,1006.29
2017-01-05T04:49:10.557Z,1006.27
2017-01-05T04:50:10.569Z,1006.32
2017-01-05T04:51:10.582Z,1006.25
2017-01-05T04:52:10.591Z,1006.28
2017-01-05T04:53:10.604Z,1006.27
2017-01-05T04:54:10.615Z,1006.34
2017-01-05T04:55:10.619Z,1006.4
2017-01-05T04:56:10.635Z,1006.38
2017-01-05T04:57:10.641Z,1006.4
2017-01-05T04:58:10.659Z,1006.39
2017-01-05T04:59:10.663Z,1006.44
2017-01-05T05:00:10.672Z,1006.4
2017-01-05T05:01:10.683Z,1006.44
2017-01-05T05:02:10.696Z,1006.43
2017-01-05T05:03:10.707Z,1006.47
2017-01-05T05:04:10.716Z,1006.51
2017-01-05T05:05:10.725Z,1006.5
2017-01-05T05:06:10.738Z,1006.51
2017-01-05T05:07:10.746Z,1006.5
2017-01-05T05:08:10.756Z,1006.53
2017-01-05T05:09:10.764Z,1006.59
2017-01-05T05:10:10.780Z,1006.55
2017-01-05T05:11:10.787Z,1006.5
2017-01-05T05:12:10.796Z,1006.6
2017-01-05T05:13:10.805Z,1006.61
2017-01-05T05:14:10.822Z,1006.65
2017-01-05T05:15:10.828Z,1006.66
2017-01-05T05:16:10.835Z,1006.69
2017-01-05T05:17:10.848Z,1006.68
2017-01-05T05:18:10.858Z,1006.73
2017-01-05T05:19:10.870Z,1006.74
2017-01-05T05:20:10.881Z,1006.77
2017-01-05T05:21:10.893Z,1006.77
2017-01-05T05:22:10.898Z,1006.81
2017-01-05T05:23:10.915Z,1006.74
2017-01-05T05:24:10.924Z,1006.77
2017-01-05T05:25:10.930Z,1006.84
2017-01-05T05:26:10.942Z,1006.87
2017-01-05T05:27:10.952Z,1006.84
2017-01-05T05:28:10.963Z,1006.89
2017-01-05T05:29:10.976Z,1006.95
2017-01-05T05:30:10.985Z,1006.97
2017-01-05T05:31:10.995Z,1006.99
2017-01-05T05:32:11.006Z,1006.98
2017-01-05T05:33:11.017Z,1006.94
2017-01-05T05:34:11.025Z,1006.99
2017-01-05T05:35:11.035Z,1006.95
2017-01-05T05:36:11.045Z,1007.01
2017-01-05T05:37:11.054Z,1007.08
2017-01-05T05:38:11.069Z,1007.05
2017-01-05T05:39:11.078Z,1007.06
2017-01-05T05:40:11.089Z,1007.06
2017-01-05T05:41:11.093Z,1007.15
2017-01-05T05:42:11.109Z,1007.12
2017-01-05T05:43:11.115Z,1007.22
2017-01-05T05:44:11.129Z,1007.21
2017-01-05T05:45:11.141Z,1007.22
2017-01-05T05:46:11.147Z,1007.18
2017-01-05T05:47:11.159Z,1007.24
2017-01-05T05:48:11.170Z,1007.23
2017-01-05T05:49:11.178Z,1007.25
2017-01-05T05:50:11.191Z,1007.26
2017-01-05T05:51:11.200Z,1007.24
2017-01-05T05:52:11.210Z,1007.28
2017-01-05T05:53:11.225Z,1007.29
2017-01-05T05:54:11.235Z,1007.36
2017-01-05T05:55:11.239Z,1007.34
2017-01-05T05:56:11.253Z,1007.39
2017-01-05T05:57:11.262Z,1007.43
2017-01-05T05:58:11.275Z,1007.42
2017-01-05T05:59:11.285Z,1007.45
2017-01-05T06:00:11.294Z,1007.47
2017-01-05T06:01:11.306Z,1007.46
2017-01-05T06:02:11.315Z,1007.47
2017-01-05T06:03:11.324Z,1007.47
2017-01-05T06:04:11.333Z,1007.53
2017-01-05T06:05:11.346Z,1007.5
2017-01-05T06:06:11.358Z,1007.57
2017-01-05T06:07:11.365Z,1007.57
2017-01-05T06:08:11.378Z,1007.6
2017-01-05T06:09:11.388Z,1007.59
2017-01-05T06:10:11.395Z,1007.6
2017-01-05T06:11:11.408Z,1007.58
2017-01-05T06:12:11.420Z,1007.63
2017-01-05T06:13:11.430Z,1007.62
2017-01-05T06:14:11.439Z,1007.67
2017-01-05T06:15:11.448Z,1007.66
2017-01-05T06:16:11.460Z,1007.64
2017-01-05T06:17:11.470Z,1007.7
2017-01-05T06:18:11.481Z,1007.68
2017-01-05T06:19:11.494Z,1007.72
2017-01-05T06:20:11.501Z,1007.69
2017-01-05T06:21:11.512Z,1007.66
2017-01-05T06:22:11.524Z,1007.73
2017-01-05T06:23:11.534Z,1007.78
2017-01-05T06:24:11.541Z,1007.79
2017-01-05T06:25:11.552Z,1007.81
2017-01-05T06:26:11.563Z,1007.86
2017-01-05T06:27:11.574Z,1007.81
2017-01-05T06:28:11.586Z,1007.85
2017-01-05T06:29:11.596Z,1007.9
2017-01-05T06:30:11.607Z,1007.87
2017-01-05T06:31:11.613Z,1007.89
2017-01-05T06:32:11.628Z,1007.86
2017-01-05T06:33:11.637Z,1007.92
2017-01-05T06:34:11.650Z,1007.91
2017-01-05T06:35:11.658Z,1007.94
2017-01-05T06:36:11.667Z,1008.01
2017-01-05T06:37:11.680Z,1008
2017-01-05T06:38:11.689Z,1008.06
2017-01-05T06:39:11.702Z,1008.05
2017-01-05T06:40:11.711Z,1008.1
2017-01-05T06:41:11.726Z,1008.11
2017-01-05T06:42:11.731Z,1008.14
2017-01-05T06:43:11.745Z,1008.13
2017-01-05T06:44:11.756Z,1008.17
2017-01-05T06:45:11.764Z,1008.26
2017-01-05T06:46:11.776Z,1008.25
2017-01-05T06:47:11.785Z,1008.28
2017-01-05T06:48:11.798Z,1008.27
2017-01-05T06:49:11.807Z,1008.31
2017-01-05T06:50:11.816Z,1008.31
2017-01-05T06:51:11.829Z,1008.35
2017-01-05T06:52:11.839Z,1008.38
2017-01-05T06:53:11.854Z,1008.4
2017-01-05T06:54:11.862Z,1008.42
2017-01-05T06:55:11.873Z,1008.44
2017-01-05T06:56:11.885Z,1008.51
2017-01-05T06:57:11.894Z,1008.52
2017-01-05T06:58:11.908Z,1008.57
2017-01-05T06:59:11.914Z,1008.56
2017-01-05T07:00:11.927Z,1008.58
2017-01-05T07:01:11.937Z,1008.68
2017-01-05T07:02:11.947Z,1008.69
2017-01-05T07:03:11.957Z,1008.68
2017-01-05T07:04:11.970Z,1008.7
2017-01-05T07:05:11.981Z,1008.69
2017-01-05T07:06:11.992Z,1008.7
2017-01-05T07:07:12.004Z,1008.76
2017-01-05T07:08:12.013Z,1008.76
2017-01-05T07:09:12.023Z,1008.74
2017-01-05T07:10:12.033Z,1008.79
2017-01-05T07:11:12.045Z,1008.85
2017-01-05T07:12:12.050Z,1008.78
2017-01-05T07:13:12.065Z,1008.84
2017-01-05T07:14:12.075Z,1008.85
2017-01-05T07:15:12.084Z,1008.87
2017-01-05T07:16:12.098Z,1008.91
2017-01-05T07:17:12.103Z,1008.85
2017-01-05T07:18:12.120Z,1008.88
2017-01-05T07:19:12.125Z,1008.91
2017-01-05T07:20:12.142Z,1008.96
2017-01-05T07:21:12.147Z,1008.95
2017-01-05T07:22:12.157Z,1008.95
2017-01-05T07:23:12.165Z,1009
2017-01-05T07:24:12.181Z,1008.94
2017-01-05T07:25:12.187Z,1009.01
2017-01-05T07:26:12.200Z,1009.05
2017-01-05T07:27:12.210Z,1009.16
2017-01-05T07:28:12.220Z,1009.15
2017-01-05T07:29:12.230Z,1009.16
2017-01-05T07:30:12.240Z,1009.19
2017-01-05T07:31:12.253Z,1009.2
2017-01-05T07:32:12.265Z,1009.23
2017-01-05T07:33:12.271Z,1009.21
2017-01-05T07:34:12.282Z,1009.18
2017-01-05T07:35:12.293Z,1009.17
2017-01-05T07:36:12.306Z,1009.2
2017-01-05T07:37:12.313Z,1009.23
2017-01-05T07:38:12.322Z,1009.26
2017-01-05T07:39:12.334Z,1009.3
2017-01-05T07:40:12.343Z,1009.28
2017-01-05T07:41:12.352Z,1009.3
2017-01-05T07:42:12.362Z,1009.29
2017-01-05T07:43:12.374Z,1009.39
2017-01-05T07:44:12.383Z,1009.32
2017-01-05T07:45:12.396Z,1009.32
2017-01-05T07:46:12.409Z,1009.34
2017-01-05T07:47:12.416Z,1009.41
2017-01-05T07:48:12.427Z,1009.36
2017-01-05T07:49:12.436Z,1009.42
2017-01-05T07:50:12.451Z,1009.4
2017-01-05T07:51:12.457Z,1009.44
2017-01-05T07:52:12.467Z,1009.49
2017-01-05T07:53:12.478Z,1009.53
2017-01-05T07:54:12.490Z,1009.53
2017-01-05T07:55:12.497Z,1009.54
2017-01-05T07:56:12.508Z,1009.55
2017-01-05T07:57:12.520Z,1009.56
2017-01-05T07:58:12.530Z,1009.56
2017-01-05T07:59:12.538Z,1009.59
2017-01-05T08:00:12.551Z,1009.64
2017-01-05T08:01:12.557Z,1009.64
2017-01-05T08:02:12.571Z,1009.65
2017-01-05T08:03:12.579Z,1009.63
2017-01-05T08:04:12.592Z,1009.67
2017-01-05T08:05:12.600Z,1009.69
2017-01-05T08:06:12.610Z,1009.67
2017-01-05T08:07:12.621Z,1009.71
2017-01-05T08:08:12.630Z,1009.78
2017-01-05T08:09:12.638Z,1009.75
2017-01-05T08:10:12.654Z,1009.8
2017-01-05T08:11:12.661Z,1009.85
2017-01-05T08:12:12.674Z,1009.89
2017-01-05T08:13:12.681Z,1009.93
2017-01-05T08:14:12.692Z,1009.89
2017-01-05T08:15:12.704Z,1009.9
2017-01-05T08:16:12.715Z,1009.92
2017-01-05T08:17:12.724Z,1009.95
2017-01-05T08:18:12.732Z,1009.93
2017-01-05T08:19:12.746Z,1009.94
2017-01-05T08:20:12.757Z,1009.97
2017-01-05T08:21:12.765Z,1009.97
2017-01-05T08:22:12.776Z,1010.03
2017-01-05T08:23:12.787Z,1010.05
2017-01-05T08:24:12.798Z,1010.09
2017-01-05T08:25:12.810Z,1010.09
2017-01-05T08:26:12.817Z,1010.09
2017-01-05T08:27:12.833Z,1010.17
2017-01-05T08:28:12.840Z,1010.16
2017-01-05T08:29:12.852Z,1010.2
2017-01-05T08:30:12.861Z,1010.22
2017-01-05T08:31:12.874Z,1010.23
2017-01-05T08:32:12.880Z,1010.32
2017-01-05T08:33:12.892Z,1010.38
2017-01-05T08:34:12.905Z,1010.38
2017-01-05T08:35:12.913Z,1010.48
2017-01-05T08:36:12.925Z,1010.45
2017-01-05T08:37:12.936Z,1010.51
2017-01-05T08:38:12.947Z,1010.58
2017-01-05T08:39:12.955Z,1010.63
2017-01-05T08:40:12.964Z,1010.62
2017-01-05T08:41:12.978Z,1010.67
2017-01-05T08:42:12.986Z,1010.72
2017-01-05T08:43:12.998Z,1010.74
2017-01-05T08:44:13.007Z,1010.77
2017-01-05T08:45:13.021Z,1010.82
2017-01-05T08:46:13.028Z,1010.83
2017-01-05T08:47:13.038Z,1010.9
2017-01-05T08:48:13.049Z,1010.93
2017-01-05T08:49:13.062Z,1010.93
2017-01-05T08:50:13.070Z,1010.94
2017-01-05T08:51:13.080Z,1010.97
2017-01-05T08:52:13.094Z,1010.98
2017-01-05T08:53:13.101Z,1011.02
2017-01-05T08:54:13.114Z,1011.04
2017-01-05T08:55:13.126Z,1011.11
2017-01-05T08:56:13.134Z,1011.03
2017-01-05T08:57:13.148Z,1011.09
2017-01-05T08:58:13.155Z,1011.18
2017-01-05T08:59:13.167Z,1011.11
2017-01-05T09:00:13.180Z,1011.15
2017-01-05T09:01:13.189Z,1011.2
2017-01-05T09:02:13.197Z,1011.22
2017-01-05T09:03:13.209Z,1011.25
2017-01-05T09:04:13.218Z,1011.31
2017-01-05T09:05:13.228Z,1011.38
2017-01-05T09:06:13.240Z,1011.38
2017-01-05T09:07:13.251Z,1011.37
2017-01-05T09:08:13.258Z,1011.42
2017-01-05T09:09:13.267Z,1011.45
2017-01-05T09:10:13.282Z,1011.48
2017-01-05T09:11:13.311Z,1011.47
2017-01-05T09:12:13.301Z,1011.47
2017-01-05T09:13:13.311Z,1011.5
2017-01-05T09:14:13.320Z,1011.58
2017-01-05T09:15:13.333Z,1011.54
2017-01-05T09:16:13.346Z,1011.56
2017-01-05T09:17:13.354Z,1011.59
2017-01-05T09:18:13.371Z,1011.64
2017-01-05T09:19:13.376Z,1011.62
2017-01-05T09:20:13.385Z,1011.66
2017-01-05T09:21:13.395Z,1011.7
2017-01-05T09:22:13.410Z,1011.72
2017-01-05T09:23:13.420Z,1011.74
2017-01-05T09:24:13.428Z,1011.73
2017-01-05T09:25:13.443Z,1011.76
2017-01-05T09:26:13.449Z,1011.78
2017-01-05T09:27:13.460Z,1011.81
2017-01-05T09:28:13.473Z,1011.8
2017-01-05T09:29:13.480Z,1011.8
2017-01-05T09:30:13.492Z,1011.85
2017-01-05T09:31:13.501Z,1011.85
2017-01-05T09:32:13.513Z,1011.85
2017-01-05T09:33:13.526Z,1011.88
2017-01-05T09:34:13.537Z,1011.91
2017-01-05T09:35:13.545Z,1011.88
2017-01-05T09:36:13.557Z,1011.9
2017-01-05T09:37:13.570Z,1011.91
2017-01-05T09:38:13.577Z,1011.93
2017-01-05T09:39:13.590Z,1011.95
2017-01-05T09:40:13.599Z,1011.94
2017-01-05T09:41:13.615Z,1011.94
2017-01-05T09:42:13.622Z,1011.95
2017-01-05T09:43:13.637Z,1011.96
2017-01-05T09:44:13.648Z,1011.99
2017-01-05T09:45:13.659Z,1011.98
2017-01-05T09:46:13.668Z,1012.02
2017-01-05T09:47:13.682Z,1012.02
2017-01-05T09:48:13.690Z,1012.07
2017-01-05T09:49:13.704Z,1012.05
2017-01-05T09:50:13.710Z,1012.1
2017-01-05T09:51:13.725Z,1012.09
2017-01-05T09:52:13.734Z,1012.15
2017-01-05T09:53:13.744Z,1012.11
2017-01-05T09:54:13.754Z,1012.19
2017-01-05T09:55:13.770Z,1012.11
2017-01-05T09:56:13.776Z,1012.13
2017-01-05T09:57:13.788Z,1012.13
2017-01-05T09:58:13.800Z,1012.15
2017-01-05T09:59:13.807Z,1012.12
2017-01-05T10:00:13.820Z,1012.14
2017-01-05T10:01:13.833Z,1012.17
2017-01-05T10:02:13.895Z,1012.2
2017-01-05T10:03:13.853Z,1012.18
2017-01-05T10:04:13.863Z,1012.21
2017-01-05T10:05:13.876Z,1012.15
2017-01-05T10:06:13.885Z,1012.2
2017-01-05T10:07:13.898Z,1012.2
2017-01-05T10:08:13.908Z,1012.25
2017-01-05T10:09:13.923Z,1012.25
2017-01-05T10:10:13.934Z,1012.3
2017-01-05T10:11:13.942Z,1012.3
2017-01-05T10:12:13.952Z,1012.3
2017-01-05T10:13:13.965Z,1012.37
2017-01-05T10:14:13.974Z,1012.34
2017-01-05T10:15:13.987Z,1012.4
2017-01-05T10:16:13.997Z,1012.37
2017-01-05T10:17:14.007Z,1012.39
2017-01-05T10:18:14.018Z,1012.39
2017-01-05T10:19:14.030Z,1012.39
2017-01-05T10:20:14.043Z,1012.44
2017-01-05T10:21:14.049Z,1012.43
2017-01-05T10:22:14.063Z,1012.66
2017-01-05T10:23:14.078Z,1012.49
2017-01-05T10:24:14.085Z,1012.4
2017-01-05T10:25:14.095Z,1012.45
2017-01-05T10:26:14.107Z,1012.43
2017-01-05T10:27:14.115Z,1012.46
2017-01-05T10:28:14.128Z,1012.45
2017-01-05T10:29:14.140Z,1012.34
2017-01-05T10:30:14.150Z,1012.5
2017-01-05T10:31:14.165Z,1012.38
2017-01-05T10:32:14.173Z,1012.41
2017-01-05T10:33:14.181Z,1012.41
2017-01-05T10:34:14.197Z,1012.46
2017-01-05T10:35:14.206Z,1012.54
2017-01-05T10:36:14.215Z,1012.43
2017-01-05T10:37:14.227Z,1012.51
2017-01-05T10:38:14.234Z,1012.65
2017-01-05T10:39:14.246Z,1012.63
2017-01-05T10:40:14.256Z,1012.62
2017-01-05T10:41:14.268Z,1012.71
2017-01-05T10:42:14.279Z,1012.67
2017-01-05T10:43:14.290Z,1012.58
2017-01-05T10:44:14.302Z,1012.64
2017-01-05T10:45:14.311Z,1012.54
2017-01-05T10:46:14.318Z,1012.68
2017-01-05T10:47:14.333Z,1012.7
2017-01-05T10:48:14.343Z,1012.7
2017-01-05T10:49:14.353Z,1012.68
2017-01-05T10:50:14.362Z,1012.62
2017-01-05T10:51:14.376Z,1012.61
2017-01-05T10:52:14.384Z,1012.72
2017-01-05T10:53:14.396Z,1012.7
2017-01-05T10:54:14.402Z,1012.73
2017-01-05T10:55:14.415Z,1012.75
2017-01-05T10:56:14.427Z,1012.79
2017-01-05T10:57:14.437Z,1012.78
2017-01-05T10:58:14.446Z,1012.9
2017-01-05T10:59:14.461Z,1012.84
2017-01-05T11:00:14.467Z,1012.84
2017-01-05T11:01:14.480Z,1012.86
2017-01-05T11:02:14.486Z,1012.85
2017-01-05T11:03:14.501Z,1012.9
2017-01-05T11:04:14.509Z,1012.84
2017-01-05T11:05:14.518Z,1012.91
2017-01-05T11:06:14.528Z,1012.85
2017-01-05T11:07:14.541Z,1012.85
2017-01-05T11:08:14.552Z,1012.9
2017-01-05T11:09:14.559Z,1012.86
2017-01-05T11:10:14.574Z,1012.89
2017-01-05T11:11:14.581Z,1012.95
2017-01-05T11:12:14.593Z,1012.89
2017-01-05T11:13:14.604Z,1012.95
2017-01-05T11:14:14.615Z,1012.91
2017-01-05T11:15:14.627Z,1012.93
2017-01-05T11:16:14.636Z,1012.96
2017-01-05T11:17:14.648Z,1012.95
2017-01-05T11:18:14.655Z,1012.93
2017-01-05T11:19:14.668Z,1013
2017-01-05T11:20:14.680Z,1012.93
2017-01-05T11:21:14.685Z,1012.96
2017-01-05T11:22:14.702Z,1012.98
2017-01-05T11:23:14.708Z,1012.98
2017-01-05T11:24:14.720Z,1013.01
2017-01-05T11:25:14.732Z,1013.05
2017-01-05T11:26:14.739Z,1013.14
2017-01-05T11:27:14.751Z,1013.02
2017-01-05T11:28:14.763Z,1013.08
2017-01-05T11:29:14.771Z,1013.09
2017-01-05T11:30:14.787Z,1013.09
2017-01-05T11:31:14.796Z,1013.07
2017-01-05T11:32:14.803Z,1013.08
2017-01-05T11:33:14.814Z,1013.09
2017-01-05T11:34:14.824Z,1013.03
2017-01-05T11:35:14.832Z,1013.09
2017-01-05T11:36:14.847Z,1013.08
2017-01-05T11:37:14.855Z,1013.14
2017-01-05T11:38:14.871Z,1013.14
2017-01-05T11:39:14.880Z,1013.17
2017-01-05T11:40:14.890Z,1013.2
2017-01-05T11:41:14.898Z,1013.19
2017-01-05T11:42:14.908Z,1013.18
2017-01-05T11:43:14.920Z,1013.21
2017-01-05T11:44:14.934Z,1013.27
2017-01-05T11:45:14.946Z,1013.28
2017-01-05T11:46:14.952Z,1013.3
2017-01-05T11:47:14.968Z,1013.34
2017-01-05T11:48:14.979Z,1013.32
2017-01-05T11:49:14.989Z,1013.35
2017-01-05T11:50:14.997Z,1013.32
2017-01-05T11:51:15.009Z,1013.33
2017-01-05T11:52:15.023Z,1013.3
2017-01-05T11:53:15.034Z,1013.3
2017-01-05T11:54:15.047Z,1013.26
2017-01-05T11:55:15.053Z,1013.27
2017-01-05T11:56:15.063Z,1013.26
2017-01-05T11:57:15.078Z,1013.34
2017-01-05T11:58:15.091Z,1013.34
2017-01-05T11:59:15.104Z,1013.3
2017-01-05T12:00:15.111Z,1013.34
2017-01-05T12:01:15.121Z,1013.34
2017-01-05T12:02:15.136Z,1013.39
2017-01-05T12:03:15.148Z,1013.34
2017-01-05T12:04:15.158Z,1013.37
2017-01-05T12:05:15.167Z,1013.35
2017-01-05T12:06:15.183Z,1013.36
2017-01-05T12:07:15.194Z,1013.33
2017-01-05T12:08:15.202Z,1013.36
2017-01-05T12:09:15.218Z,1013.38
2017-01-05T12:10:15.229Z,1013.5